UAL1508 KRSW-KEWR
Flight info
| Callsign | UAL1508 |
|---|---|
| Flight time | N/A |
| Altitude | 33000 |
| Route | CSHEL8 VIYAP/N0450F350 Q87 ALWZZ OGRAE Q99 QUART PHLBO4 |
| Aircraft | B739/M-SDE2E3FGHIRWXY/LB1 |
Departure
| Time | 2026-05-07 19:46 |
|---|---|
| Airport | Southwest Florida International Airport (KRSW) |
Arrival
| Time | N/A |
|---|---|
| Airport | Newark Liberty International Airport (KEWR) |
| Time | Latitude | Longitude | Altitude | Speed | Heading |
|---|---|---|---|---|---|
| 2026-05-07 19:45 | 26.51496 | -81.78756 | 1888 ft | 199 kts | 235° |
| 2026-05-07 19:46 | 26.50652 | -81.80050 | 2506 ft | 216 kts | 234° |
| 2026-05-07 19:46 | 26.49901 | -81.81561 | 3004 ft | 231 kts | 257° |
| 2026-05-07 19:46 | 26.49744 | -81.83353 | 3783 ft | 232 kts | 265° |
| 2026-05-07 19:46 | 26.49653 | -81.85153 | 4634 ft | 234 kts | 270° |
| 2026-05-07 19:47 | 26.50077 | -81.86982 | 4964 ft | 261 kts | 301° |
| 2026-05-07 19:47 | 26.51438 | -81.88385 | 5467 ft | 276 kts | 332° |
| 2026-05-07 19:47 | 26.53255 | -81.89110 | 6300 ft | 279 kts | 344° |
| 2026-05-07 19:47 | 26.55148 | -81.89631 | 7097 ft | 282 kts | 345° |
| 2026-05-07 19:48 | 26.57067 | -81.90154 | 7818 ft | 286 kts | 345° |
| 2026-05-07 19:48 | 26.59007 | -81.90707 | 8551 ft | 289 kts | 345° |
| 2026-05-07 19:48 | 26.60970 | -81.91284 | 9289 ft | 293 kts | 344° |
| 2026-05-07 19:48 | 26.62950 | -81.91848 | 10014 ft | 295 kts | 349° |
| 2026-05-07 19:49 | 26.65020 | -81.91830 | 10558 ft | 305 kts | 8° |
| 2026-05-07 19:49 | 26.67193 | -81.91452 | 10766 ft | 326 kts | 8° |
| 2026-05-07 19:49 | 26.69500 | -81.91046 | 11001 ft | 343 kts | 8° |
| 2026-05-07 19:49 | 26.71866 | -81.90654 | 11488 ft | 350 kts | 8° |
| 2026-05-07 19:50 | 26.74276 | -81.90269 | 12325 ft | 349 kts | 7° |
| 2026-05-07 19:50 | 26.76658 | -81.89763 | 13110 ft | 349 kts | 15° |
| 2026-05-07 19:50 | 26.78968 | -81.88760 | 13499 ft | 361 kts | 27° |
| 2026-05-07 19:50 | 26.81175 | -81.87362 | 13970 ft | 368 kts | 29° |
| 2026-05-07 19:51 | 26.83392 | -81.85903 | 14540 ft | 371 kts | 29° |
| 2026-05-07 19:51 | 26.85638 | -81.84430 | 15038 ft | 375 kts | 28° |
| 2026-05-07 19:51 | 26.87909 | -81.82959 | 15542 ft | 380 kts | 28° |
| 2026-05-07 19:51 | 26.90218 | -81.81478 | 16067 ft | 383 kts | 28° |
| 2026-05-07 19:52 | 26.92548 | -81.79990 | 16566 ft | 387 kts | 27° |
| 2026-05-07 19:52 | 26.94938 | -81.78580 | 17059 ft | 390 kts | 24° |
| 2026-05-07 19:52 | 26.97371 | -81.77230 | 17581 ft | 392 kts | 24° |
| 2026-05-07 19:52 | 26.99807 | -81.75925 | 18100 ft | 392 kts | 18° |
| 2026-05-07 19:53 | 27.02447 | -81.75215 | 18542 ft | 389 kts | 1° |
| 2026-05-07 19:53 | 27.05130 | -81.75365 | 19006 ft | 386 kts | 345° |
| 2026-05-07 19:53 | 27.07714 | -81.76172 | 19460 ft | 387 kts | 340° |
| 2026-05-07 19:53 | 27.10288 | -81.77093 | 19918 ft | 389 kts | 339° |
| 2026-05-07 19:54 | 27.12867 | -81.78028 | 20361 ft | 391 kts | 339° |
| 2026-05-07 19:54 | 27.15461 | -81.78958 | 20887 ft | 391 kts | 339° |
| 2026-05-07 19:54 | 27.18052 | -81.79875 | 21372 ft | 392 kts | 339° |
| 2026-05-07 19:54 | 27.20662 | -81.80788 | 21849 ft | 392 kts | 339° |
| 2026-05-07 19:55 | 27.23277 | -81.81697 | 22258 ft | 395 kts | 339° |
| 2026-05-07 19:55 | 27.25912 | -81.82610 | 22644 ft | 397 kts | 339° |
| 2026-05-07 19:55 | 27.28563 | -81.83528 | 23014 ft | 399 kts | 338° |
| 2026-05-07 19:55 | 27.31231 | -81.84453 | 23343 ft | 402 kts | 338° |
| 2026-05-07 19:56 | 27.33916 | -81.85383 | 23654 ft | 406 kts | 338° |
| 2026-05-07 19:56 | 27.36623 | -81.86322 | 23995 ft | 408 kts | 338° |